Time;durP1;ratioP1;P1;durP2;ratioP2;P2;SDS_P1;SDS_P2;PMS_P1;PMS_P2;Temp;Humidity;BMP_temperature;BMP_pressure;BME280_temperature;BME280_humidity;BME280_pressure;Samples;Min_cycle;Max_cycle;Signal;HPM_P1;HPM_P2
2023/03/08 20:53:43;;;;;;;2.47;1.90;;;21.00;56.90;;;;;;5073418;23;20491;-92
2023/03/08 20:56:14;;;;;;;2.10;2.00;;;21.00;57.30;;;;;;5059263;28;20851;-92
2023/03/08 20:58:43;;;;;;;2.57;2.37;;;21.10;57.30;;;;;;5058893;28;20451;-92
2023/03/08 21:01:11;;;;;;;2.40;2.20;;;21.10;57.30;;;;;;5060603;28;20440;-92
2023/03/08 21:03:41;;;;;;;2.03;1.93;;;21.20;57.30;;;;;;5059931;28;20481;-92
2023/03/08 21:06:12;;;;;;;1.97;1.87;;;21.20;57.30;;;;;;5062801;28;20437;-92
2023/03/08 21:08:41;;;;;;;2.30;2.10;;;21.20;57.20;;;;;;5060270;28;20900;-93
2023/03/08 21:11:09;;;;;;;3.00;1.80;;;21.20;57.20;;;;;;5059668;28;20497;-93
2023/03/08 21:13:36;;;;;;;3.10;1.80;;;21.20;57.20;;;;;;5041835;28;20441;-92
2023/03/08 21:16:04;;;;;;;2.40;2.20;;;21.20;57.10;;;;;;5059356;28;20509;-92
2023/03/08 21:18:34;;;;;;;2.53;2.33;;;21.20;57.10;;;;;;5042031;28;20511;-91
2023/03/08 21:21:01;;;;;;;1.97;1.87;;;21.20;57.10;;;;;;5059835;28;20532;-92
2023/03/08 21:23:31;;;;;;;4.10;2.20;;;21.20;57.00;;;;;;5058611;28;20545;-91
2023/03/08 21:26:04;;;;;;;2.50;2.37;;;21.20;57.00;;;;;;5042186;28;20463;-91
2023/03/08 21:28:33;;;;;;;2.40;2.20;;;21.20;57.00;;;;;;5058834;28;21071;-94
2023/03/08 21:31:02;;;;;;;2.20;2.10;;;21.20;57.00;;;;;;5061025;28;20536;-90
2023/03/08 21:33:33;;;;;;;7.50;2.37;;;21.20;57.50;;;;;;5059345;28;20481;-91
2023/03/08 21:36:00;;;;;;;2.63;2.30;;;21.20;56.90;;;;;;5059141;28;20430;-93
2023/03/08 21:38:27;;;;;;;2.57;2.37;;;21.20;57.00;;;;;;5057309;28;20485;-90
2023/03/08 21:40:55;;;;;;;2.50;2.30;;;21.20;57.00;;;;;;5060175;28;20474;-91
2023/03/08 21:43:27;;;;;;;2.00;1.90;;;21.20;56.90;;;;;;5060433;28;20537;-90
2023/03/08 21:45:54;;;;;;;1.90;1.80;;;21.20;56.90;;;;;;5060751;28;20493;-88
2023/03/08 21:48:21;;;;;;;2.30;2.10;;;21.30;56.90;;;;;;5076750;28;20448;-89
2023/03/08 21:50:55;;;;;;;2.70;2.50;;;21.20;56.80;;;;;;5079161;28;20449;-90
2023/03/08 21:53:24;;;;;;;2.50;2.30;;;21.20;56.80;;;;;;5061982;28;20967;-91
2023/03/08 21:55:51;;;;;;;2.40;1.93;;;21.20;56.80;;;;;;5063553;28;20947;-88
2023/03/08 21:58:18;;;;;;;2.27;2.10;;;21.20;56.70;;;;;;5059639;28;20451;-89
2023/03/08 22:00:49;;;;;;;2.80;2.30;;;21.20;56.70;;;;;;5059718;28;20442;-91
2023/03/08 22:03:30;;;;;;;1.70;1.60;;;21.20;56.70;;;;;;5062938;28;20540;-90
2023/03/08 22:05:57;;;;;;;2.37;2.17;;;21.20;56.60;;;;;;5060734;28;20434;-90
2023/03/08 22:08:24;;;;;;;1.97;1.87;;;21.20;57.30;;;;;;5058955;28;20536;-90
2023/03/08 22:10:51;;;;;;;2.23;2.03;;;21.20;56.70;;;;;;5059162;28;20440;-90
2023/03/08 22:13:18;;;;;;;1.93;1.83;;;21.20;56.70;;;;;;5062116;28;20495;-90
2023/03/08 22:15:47;;;;;;;5.70;1.90;;;21.20;56.70;;;;;;5016851;23;20503;-90
2023/03/08 22:18:21;;;;;;;2.67;2.13;;;21.20;56.50;;;;;;4984782;28;20524;-91
2023/03/08 22:20:50;;;;;;;1.93;1.83;;;21.20;56.60;;;;;;4980606;28;20951;-91
2023/03/08 22:23:17;;;;;;;1.97;1.83;;;21.20;56.60;;;;;;4980395;28;20441;-91
2023/03/08 22:25:44;;;;;;;1.90;1.80;;;21.20;56.60;;;;;;4980740;28;20531;-92
2023/03/08 22:28:11;;;;;;;2.07;1.87;;;21.10;56.50;;;;;;4977591;28;20798;-91
2023/03/08 22:30:39;;;;;;;2.43;2.23;;;21.10;56.60;;;;;;4975201;28;20492;-90
2023/03/08 22:33:08;;;;;;;3.00;1.93;;;21.10;56.60;;;;;;4974850;28;20573;-90
2023/03/08 22:35:35;;;;;;;2.63;2.17;;;21.10;56.50;;;;;;4975277;28;20453;-91
2023/03/08 22:38:02;;;;;;;2.13;1.97;;;21.10;56.50;;;;;;4974945;28;20453;-92
2023/03/08 22:40:29;;;;;;;2.37;2.20;;;21.10;56.50;;;;;;4975880;28;20453;-91
2023/03/08 22:42:56;;;;;;;2.40;2.20;;;21.00;56.40;;;;;;4994137;28;20534;-91
2023/03/08 22:45:22;;;;;;;3.70;1.97;;;21.00;56.30;;;;;;4994631;28;20483;-91
2023/03/08 22:47:51;;;;;;;2.40;2.20;;;21.00;56.30;;;;;;4994498;28;21075;-91
2023/03/08 22:50:22;;;;;;;2.60;2.40;;;21.00;56.40;;;;;;4993834;28;20570;-92
2023/03/08 22:52:48;;;;;;;2.93;2.57;;;21.00;56.30;;;;;;4994086;28;20454;-93
2023/03/08 22:55:15;;;;;;;2.00;1.90;;;20.90;56.20;;;;;;4993670;28;20551;-91
2023/03/08 22:57:42;;;;;;;2.20;2.10;;;21.00;56.30;;;;;;4993788;28;21023;-92
2023/03/08 23:00:13;;;;;;;2.40;2.20;;;20.90;56.20;;;;;;4994321;28;20534;-92
2023/03/08 23:02:40;;;;;;;2.17;2.00;;;20.90;56.20;;;;;;4977329;28;20448;-90
2023/03/08 23:05:07;;;;;;;2.33;2.13;;;20.90;56.20;;;;;;4994194;28;20797;-91
2023/03/08 23:07:36;;;;;;;2.10;2.00;;;20.90;56.20;;;;;;4994153;28;20450;-91
2023/03/08 23:10:03;;;;;;;2.00;1.90;;;20.90;56.10;;;;;;4994232;28;20582;-93
2023/03/08 23:12:30;;;;;;;3.70;1.87;;;20.90;56.20;;;;;;4993934;28;20551;-92
2023/03/08 23:14:56;;;;;;;2.53;2.33;;;20.90;56.20;;;;;;4994281;28;20484;-91
2023/03/08 23:17:23;;;;;;;2.37;2.17;;;20.80;56.00;;;;;;4994838;28;20444;-91
2023/03/08 23:19:50;;;;;;;2.73;2.47;;;20.80;56.10;;;;;;4995096;28;20446;-91
2023/03/08 23:22:17;;;;;;;4.63;2.33;;;20.80;56.10;;;;;;4994412;28;20811;-92
2023/03/08 23:24:45;;;;;;;2.37;2.17;;;20.80;56.10;;;;;;4994374;28;20478;-91
2023/03/08 23:27:12;;;;;;;2.63;2.43;;;20.90;56.20;;;;;;4998209;28;20526;-91
2023/03/08 23:29:39;;;;;;;2.43;2.23;;;20.80;56.00;;;;;;4997764;28;20480;-92
2023/03/08 23:32:06;;;;;;;2.57;2.37;;;20.80;56.10;;;;;;4997869;28;20499;-90
2023/03/08 23:34:33;;;;;;;2.07;1.97;;;20.70;55.90;;;;;;4997473;28;20987;-91
2023/03/08 23:37:02;;;;;;;2.60;2.40;;;20.70;56.00;;;;;;4998021;28;20527;-91
2023/03/08 23:39:29;;;;;;;2.47;2.10;;;20.70;55.90;;;;;;4997789;28;20909;-91
2023/03/08 23:41:57;;;;;;;2.73;2.53;;;20.70;55.90;;;;;;4997585;28;20460;-93
2023/03/08 23:44:24;;;;;;;2.33;2.17;;;20.70;55.90;;;;;;4997912;28;20535;-92
2023/03/08 23:46:51;;;;;;;2.60;2.40;;;20.70;55.90;;;;;;4997766;28;20454;-91
2023/03/08 23:49:18;;;;;;;2.23;2.13;;;20.50;55.80;;;;;;4997399;28;20483;-91
2023/03/08 23:51:45;;;;;;;2.37;2.17;;;20.70;55.90;;;;;;4997258;28;20795;-91
2023/03/08 23:54:12;;;;;;;2.63;2.43;;;20.70;55.90;;;;;;4997344;28;20448;-91
2023/03/08 23:56:41;;;;;;;2.80;2.60;;;20.60;55.80;;;;;;4997577;28;20454;-91
2023/03/08 23:59:12;;;;;;;2.37;2.27;;;20.70;55.90;;;;;;4997707;28;20471;-91
